Terminal Aerodrome Forecast
Issued by NWS

Home | Current Version | Previous Version | Text Only | Print | Product List | Glossary On
Versions: 1 2 3 4 5 6 7 8 9 10 11
252
FTUS44 KLIX 230520
TAFMSY
TAF
KMSY 230520Z 2306/2406 35008KT P6SM VCTS BKN013CB OVC080
     FM230800 34010KT P6SM VCSH OVC040
     FM231200 34012KT P6SM OVC015
     FM231700 33011KT P6SM SCT030=

USA.gov is the U.S. government's official web portal to all federal, state and local government web resources and services.